sensor_id;sensor_type;location;lat;lon;timestamp;P1;durP1;ratioP1;P2;durP2;ratioP2
17494;SDS011;8864;51.970;4.614;2022-12-10T00:01:06;11.13;;;5.90;;
17494;SDS011;8864;51.970;4.614;2022-12-10T00:03:34;8.55;;;4.50;;
17494;SDS011;8864;51.970;4.614;2022-12-10T00:06:01;10.32;;;5.30;;
17494;SDS011;8864;51.970;4.614;2022-12-10T00:08:28;9.98;;;5.22;;
17494;SDS011;8864;51.970;4.614;2022-12-10T00:10:57;11.73;;;6.05;;
17494;SDS011;8864;51.970;4.614;2022-12-10T00:13:23;8.90;;;4.97;;
17494;SDS011;8864;51.970;4.614;2022-12-10T00:15:51;10.38;;;5.80;;
17494;SDS011;8864;51.970;4.614;2022-12-10T00:18:17;11.13;;;5.78;;
17494;SDS011;8864;51.970;4.614;2022-12-10T00:20:44;11.32;;;5.88;;
17494;SDS011;8864;51.970;4.614;2022-12-10T00:23:12;9.73;;;5.35;;
17494;SDS011;8864;51.970;4.614;2022-12-10T00:25:39;10.95;;;5.80;;
17494;SDS011;8864;51.970;4.614;2022-12-10T00:28:07;10.05;;;5.32;;
17494;SDS011;8864;51.970;4.614;2022-12-10T00:30:34;11.40;;;6.20;;
17494;SDS011;8864;51.970;4.614;2022-12-10T00:33:01;14.80;;;6.40;;
17494;SDS011;8864;51.970;4.614;2022-12-10T00:35:28;11.27;;;5.75;;
17494;SDS011;8864;51.970;4.614;2022-12-10T00:37:56;11.05;;;5.68;;
17494;SDS011;8864;51.970;4.614;2022-12-10T00:40:23;12.25;;;6.35;;
17494;SDS011;8864;51.970;4.614;2022-12-10T00:42:53;11.15;;;5.95;;
17494;SDS011;8864;51.970;4.614;2022-12-10T00:45:21;12.73;;;6.03;;
17494;SDS011;8864;51.970;4.614;2022-12-10T00:47:48;12.43;;;6.72;;
17494;SDS011;8864;51.970;4.614;2022-12-10T00:50:15;10.77;;;6.15;;
17494;SDS011;8864;51.970;4.614;2022-12-10T00:52:42;11.35;;;6.35;;
17494;SDS011;8864;51.970;4.614;2022-12-10T00:55:09;11.85;;;5.85;;
17494;SDS011;8864;51.970;4.614;2022-12-10T00:57:37;12.25;;;6.38;;
17494;SDS011;8864;51.970;4.614;2022-12-10T01:00:05;12.98;;;6.95;;
17494;SDS011;8864;51.970;4.614;2022-12-10T01:02:34;11.27;;;6.25;;
17494;SDS011;8864;51.970;4.614;2022-12-10T01:05:01;13.32;;;6.53;;
17494;SDS011;8864;51.970;4.614;2022-12-10T01:07:28;13.25;;;6.55;;
17494;SDS011;8864;51.970;4.614;2022-12-10T01:09:55;13.70;;;6.65;;
17494;SDS011;8864;51.970;4.614;2022-12-10T01:12:22;12.45;;;6.10;;
17494;SDS011;8864;51.970;4.614;2022-12-10T01:14:48;12.88;;;6.60;;
17494;SDS011;8864;51.970;4.614;2022-12-10T01:17:15;12.00;;;6.80;;
17494;SDS011;8864;51.970;4.614;2022-12-10T01:19:44;13.43;;;6.38;;
17494;SDS011;8864;51.970;4.614;2022-12-10T01:22:11;12.15;;;6.65;;
17494;SDS011;8864;51.970;4.614;2022-12-10T01:24:38;12.38;;;6.32;;
17494;SDS011;8864;51.970;4.614;2022-12-10T01:27:05;11.45;;;6.45;;
17494;SDS011;8864;51.970;4.614;2022-12-10T01:29:32;12.90;;;6.72;;
17494;SDS011;8864;51.970;4.614;2022-12-10T01:31:59;11.57;;;6.35;;
17494;SDS011;8864;51.970;4.614;2022-12-10T01:34:26;13.90;;;7.32;;
17494;SDS011;8864;51.970;4.614;2022-12-10T01:36:56;12.60;;;6.45;;
17494;SDS011;8864;51.970;4.614;2022-12-10T01:39:23;13.70;;;7.18;;
17494;SDS011;8864;51.970;4.614;2022-12-10T01:41:53;15.23;;;6.97;;
17494;SDS011;8864;51.970;4.614;2022-12-10T01:47:26;12.43;;;6.45;;
17494;SDS011;8864;51.970;4.614;2022-12-10T01:49:53;12.43;;;6.30;;
17494;SDS011;8864;51.970;4.614;2022-12-10T01:52:21;12.25;;;6.45;;
17494;SDS011;8864;51.970;4.614;2022-12-10T01:54:48;13.10;;;7.20;;
17494;SDS011;8864;51.970;4.614;2022-12-10T01:57:17;14.07;;;6.82;;
17494;SDS011;8864;51.970;4.614;2022-12-10T01:59:46;12.50;;;6.68;;
17494;SDS011;8864;51.970;4.614;2022-12-10T02:02:17;11.98;;;6.57;;
17494;SDS011;8864;51.970;4.614;2022-12-10T02:04:58;15.50;;;7.05;;
17494;SDS011;8864;51.970;4.614;2022-12-10T02:07:48;13.55;;;6.95;;
17494;SDS011;8864;51.970;4.614;2022-12-10T02:10:29;13.48;;;7.20;;
17494;SDS011;8864;51.970;4.614;2022-12-10T02:13:05;12.52;;;6.97;;
17494;SDS011;8864;51.970;4.614;2022-12-10T02:15:40;14.80;;;6.32;;
17494;SDS011;8864;51.970;4.614;2022-12-10T02:18:10;13.55;;;6.70;;
17494;SDS011;8864;51.970;4.614;2022-12-10T02:20:40;14.02;;;6.55;;
17494;SDS011;8864;51.970;4.614;2022-12-10T02:23:12;14.98;;;7.43;;
17494;SDS011;8864;51.970;4.614;2022-12-10T02:25:45;14.43;;;6.97;;
17494;SDS011;8864;51.970;4.614;2022-12-10T02:28:17;13.88;;;6.82;;
17494;SDS011;8864;51.970;4.614;2022-12-10T02:30:50;13.77;;;6.50;;
17494;SDS011;8864;51.970;4.614;2022-12-10T02:33:19;13.50;;;7.10;;
17494;SDS011;8864;51.970;4.614;2022-12-10T02:35:48;13.48;;;6.97;;
17494;SDS011;8864;51.970;4.614;2022-12-10T02:38:16;15.02;;;7.15;;
17494;SDS011;8864;51.970;4.614;2022-12-10T02:40:49;13.82;;;7.78;;
17494;SDS011;8864;51.970;4.614;2022-12-10T02:43:19;16.20;;;6.93;;
17494;SDS011;8864;51.970;4.614;2022-12-10T02:45:48;14.35;;;7.05;;
17494;SDS011;8864;51.970;4.614;2022-12-10T02:48:17;13.75;;;7.07;;
17494;SDS011;8864;51.970;4.614;2022-12-10T02:50:45;12.55;;;7.03;;
17494;SDS011;8864;51.970;4.614;2022-12-10T02:53:12;15.50;;;6.93;;
17494;SDS011;8864;51.970;4.614;2022-12-10T02:55:43;16.42;;;7.57;;
17494;SDS011;8864;51.970;4.614;2022-12-10T02:58:23;16.00;;;7.60;;
17494;SDS011;8864;51.970;4.614;2022-12-10T03:01:00;15.50;;;7.72;;
17494;SDS011;8864;51.970;4.614;2022-12-10T03:03:34;15.38;;;8.15;;
17494;SDS011;8864;51.970;4.614;2022-12-10T03:06:08;14.32;;;7.45;;
17494;SDS011;8864;51.970;4.614;2022-12-10T03:08:44;15.68;;;8.02;;
17494;SDS011;8864;51.970;4.614;2022-12-10T03:11:16;16.02;;;8.10;;
17494;SDS011;8864;51.970;4.614;2022-12-10T03:13:47;13.65;;;7.40;;
17494;SDS011;8864;51.970;4.614;2022-12-10T03:16:22;14.80;;;7.50;;
17494;SDS011;8864;51.970;4.614;2022-12-10T03:18:52;14.48;;;7.63;;
17494;SDS011;8864;51.970;4.614;2022-12-10T03:21:23;16.33;;;7.82;;
17494;SDS011;8864;51.970;4.614;2022-12-10T03:23:52;16.35;;;7.07;;
17494;SDS011;8864;51.970;4.614;2022-12-10T03:26:19;13.48;;;7.03;;
17494;SDS011;8864;51.970;4.614;2022-12-10T03:28:51;16.63;;;7.32;;
17494;SDS011;8864;51.970;4.614;2022-12-10T03:31:24;15.13;;;7.60;;
17494;SDS011;8864;51.970;4.614;2022-12-10T03:33:51;14.13;;;7.32;;
17494;SDS011;8864;51.970;4.614;2022-12-10T03:36:19;15.48;;;7.65;;
17494;SDS011;8864;51.970;4.614;2022-12-10T03:38:47;14.77;;;6.90;;
17494;SDS011;8864;51.970;4.614;2022-12-10T03:41:14;13.43;;;7.07;;
17494;SDS011;8864;51.970;4.614;2022-12-10T03:46:28;12.43;;;7.25;;
17494;SDS011;8864;51.970;4.614;2022-12-10T03:48:57;15.68;;;7.38;;
17494;SDS011;8864;51.970;4.614;2022-12-10T03:51:25;12.80;;;7.13;;
17494;SDS011;8864;51.970;4.614;2022-12-10T03:53:53;14.48;;;7.05;;
17494;SDS011;8864;51.970;4.614;2022-12-10T03:56:21;12.90;;;6.70;;
17494;SDS011;8864;51.970;4.614;2022-12-10T03:58:48;14.63;;;7.47;;
17494;SDS011;8864;51.970;4.614;2022-12-10T04:01:15;14.68;;;7.32;;
17494;SDS011;8864;51.970;4.614;2022-12-10T04:03:43;14.80;;;7.22;;
17494;SDS011;8864;51.970;4.614;2022-12-10T04:06:12;13.55;;;7.03;;
17494;SDS011;8864;51.970;4.614;2022-12-10T04:08:40;13.95;;;6.72;;
17494;SDS011;8864;51.970;4.614;2022-12-10T04:11:08;13.13;;;7.07;;
17494;SDS011;8864;51.970;4.614;2022-12-10T04:13:37;12.70;;;6.60;;
17494;SDS011;8864;51.970;4.614;2022-12-10T04:16:22;11.77;;;6.30;;
17494;SDS011;8864;51.970;4.614;2022-12-10T04:18:55;13.63;;;6.85;;
17494;SDS011;8864;51.970;4.614;2022-12-10T04:21:24;13.07;;;7.15;;
17494;SDS011;8864;51.970;4.614;2022-12-10T04:24:09;13.75;;;6.53;;
17494;SDS011;8864;51.970;4.614;2022-12-10T04:26:55;12.60;;;6.22;;
17494;SDS011;8864;51.970;4.614;2022-12-10T04:29:24;12.27;;;6.50;;
17494;SDS011;8864;51.970;4.614;2022-12-10T04:31:53;14.05;;;6.68;;
17494;SDS011;8864;51.970;4.614;2022-12-10T04:34:23;11.32;;;5.97;;
17494;SDS011;8864;51.970;4.614;2022-12-10T04:36:50;12.07;;;6.47;;
17494;SDS011;8864;51.970;4.614;2022-12-10T04:39:17;11.77;;;6.20;;
17494;SDS011;8864;51.970;4.614;2022-12-10T04:41:45;11.82;;;6.53;;
17494;SDS011;8864;51.970;4.614;2022-12-10T04:44:13;12.93;;;6.47;;
17494;SDS011;8864;51.970;4.614;2022-12-10T04:46:41;10.30;;;6.10;;
17494;SDS011;8864;51.970;4.614;2022-12-10T04:49:08;12.45;;;6.65;;
17494;SDS011;8864;51.970;4.614;2022-12-10T04:51:36;12.82;;;6.40;;
17494;SDS011;8864;51.970;4.614;2022-12-10T04:54:04;14.40;;;6.80;;
17494;SDS011;8864;51.970;4.614;2022-12-10T04:56:32;12.30;;;6.60;;
17494;SDS011;8864;51.970;4.614;2022-12-10T04:58:59;12.32;;;6.07;;
17494;SDS011;8864;51.970;4.614;2022-12-10T05:01:27;12.68;;;6.60;;
17494;SDS011;8864;51.970;4.614;2022-12-10T05:03:56;13.75;;;6.75;;
17494;SDS011;8864;51.970;4.614;2022-12-10T05:06:24;10.82;;;6.00;;
17494;SDS011;8864;51.970;4.614;2022-12-10T05:08:53;11.70;;;6.40;;
17494;SDS011;8864;51.970;4.614;2022-12-10T05:11:21;12.35;;;6.13;;
17494;SDS011;8864;51.970;4.614;2022-12-10T05:13:49;10.57;;;5.43;;
17494;SDS011;8864;51.970;4.614;2022-12-10T05:16:18;10.95;;;5.85;;
17494;SDS011;8864;51.970;4.614;2022-12-10T05:18:48;11.48;;;5.90;;
17494;SDS011;8864;51.970;4.614;2022-12-10T05:21:15;10.82;;;5.70;;
17494;SDS011;8864;51.970;4.614;2022-12-10T05:23:45;10.82;;;6.00;;
17494;SDS011;8864;51.970;4.614;2022-12-10T05:26:14;11.02;;;5.35;;
17494;SDS011;8864;51.970;4.614;2022-12-10T05:28:43;10.77;;;5.72;;
17494;SDS011;8864;51.970;4.614;2022-12-10T05:31:12;10.43;;;5.40;;
17494;SDS011;8864;51.970;4.614;2022-12-10T05:33:40;9.55;;;5.13;;
17494;SDS011;8864;51.970;4.614;2022-12-10T05:36:07;11.52;;;6.00;;
17494;SDS011;8864;51.970;4.614;2022-12-10T05:38:36;11.70;;;5.65;;
17494;SDS011;8864;51.970;4.614;2022-12-10T05:41:03;10.52;;;5.72;;
17494;SDS011;8864;51.970;4.614;2022-12-10T05:43:33;10.90;;;6.07;;
17494;SDS011;8864;51.970;4.614;2022-12-10T05:46:02;11.63;;;6.25;;
17494;SDS011;8864;51.970;4.614;2022-12-10T05:48:31;10.93;;;5.63;;
17494;SDS011;8864;51.970;4.614;2022-12-10T05:51:02;10.77;;;5.13;;
17494;SDS011;8864;51.970;4.614;2022-12-10T05:53:30;9.57;;;5.13;;
17494;SDS011;8864;51.970;4.614;2022-12-10T05:55:59;10.25;;;5.90;;
17494;SDS011;8864;51.970;4.614;2022-12-10T05:58:27;9.32;;;5.75;;
17494;SDS011;8864;51.970;4.614;2022-12-10T06:00:56;10.88;;;5.43;;
17494;SDS011;8864;51.970;4.614;2022-12-10T06:03:25;12.90;;;5.63;;
17494;SDS011;8864;51.970;4.614;2022-12-10T06:05:53;9.90;;;5.28;;
17494;SDS011;8864;51.970;4.614;2022-12-10T06:08:21;11.45;;;6.15;;
17494;SDS011;8864;51.970;4.614;2022-12-10T06:10:48;9.02;;;5.07;;
17494;SDS011;8864;51.970;4.614;2022-12-10T06:13:15;10.27;;;5.82;;
17494;SDS011;8864;51.970;4.614;2022-12-10T06:15:44;10.43;;;5.55;;
17494;SDS011;8864;51.970;4.614;2022-12-10T06:18:12;10.27;;;5.68;;
17494;SDS011;8864;51.970;4.614;2022-12-10T06:20:39;12.35;;;5.95;;
17494;SDS011;8864;51.970;4.614;2022-12-10T06:23:06;10.10;;;5.82;;
17494;SDS011;8864;51.970;4.614;2022-12-10T06:25:33;10.10;;;5.63;;
17494;SDS011;8864;51.970;4.614;2022-12-10T06:28:03;9.73;;;5.20;;
17494;SDS011;8864;51.970;4.614;2022-12-10T06:30:30;9.73;;;5.60;;
17494;SDS011;8864;51.970;4.614;2022-12-10T06:32:57;10.98;;;5.85;;
17494;SDS011;8864;51.970;4.614;2022-12-10T06:35:26;9.27;;;5.32;;
17494;SDS011;8864;51.970;4.614;2022-12-10T06:37:53;11.27;;;5.75;;
17494;SDS011;8864;51.970;4.614;2022-12-10T06:40:20;9.90;;;5.35;;
17494;SDS011;8864;51.970;4.614;2022-12-10T06:42:47;11.20;;;5.70;;
17494;SDS011;8864;51.970;4.614;2022-12-10T06:45:16;11.15;;;5.35;;
17494;SDS011;8864;51.970;4.614;2022-12-10T06:47:43;11.00;;;5.40;;
17494;SDS011;8864;51.970;4.614;2022-12-10T06:50:10;10.77;;;5.40;;
17494;SDS011;8864;51.970;4.614;2022-12-10T06:52:40;10.80;;;4.90;;
17494;SDS011;8864;51.970;4.614;2022-12-10T06:55:07;11.57;;;5.85;;
17494;SDS011;8864;51.970;4.614;2022-12-10T06:57:34;10.82;;;5.80;;
17494;SDS011;8864;51.970;4.614;2022-12-10T07:00:02;11.15;;;5.90;;
17494;SDS011;8864;51.970;4.614;2022-12-10T07:02:29;10.82;;;5.43;;
17494;SDS011;8864;51.970;4.614;2022-12-10T07:04:56;10.38;;;5.70;;
17494;SDS011;8864;51.970;4.614;2022-12-10T07:07:23;12.07;;;5.45;;
17494;SDS011;8864;51.970;4.614;2022-12-10T07:09:51;12.15;;;5.57;;
17494;SDS011;8864;51.970;4.614;2022-12-10T07:12:18;14.40;;;6.10;;
17494;SDS011;8864;51.970;4.614;2022-12-10T07:14:45;11.43;;;5.07;;
17494;SDS011;8864;51.970;4.614;2022-12-10T07:17:12;13.27;;;5.57;;
17494;SDS011;8864;51.970;4.614;2022-12-10T07:19:39;11.93;;;6.00;;
17494;SDS011;8864;51.970;4.614;2022-12-10T07:22:05;11.95;;;5.82;;
17494;SDS011;8864;51.970;4.614;2022-12-10T07:24:32;11.93;;;5.28;;
17494;SDS011;8864;51.970;4.614;2022-12-10T07:27:03;11.60;;;5.97;;
17494;SDS011;8864;51.970;4.614;2022-12-10T07:29:31;10.15;;;5.72;;
17494;SDS011;8864;51.970;4.614;2022-12-10T07:31:58;11.50;;;5.70;;
17494;SDS011;8864;51.970;4.614;2022-12-10T07:34:25;12.70;;;5.97;;
17494;SDS011;8864;51.970;4.614;2022-12-10T07:36:54;11.45;;;5.93;;
17494;SDS011;8864;51.970;4.614;2022-12-10T07:39:22;13.20;;;6.28;;
17494;SDS011;8864;51.970;4.614;2022-12-10T07:41:49;11.30;;;5.47;;
17494;SDS011;8864;51.970;4.614;2022-12-10T07:44:19;9.90;;;5.50;;
17494;SDS011;8864;51.970;4.614;2022-12-10T07:46:47;13.27;;;6.43;;
17494;SDS011;8864;51.970;4.614;2022-12-10T07:49:16;13.70;;;6.57;;
17494;SDS011;8864;51.970;4.614;2022-12-10T07:51:43;13.57;;;6.13;;
17494;SDS011;8864;51.970;4.614;2022-12-10T07:54:11;15.93;;;6.30;;
17494;SDS011;8864;51.970;4.614;2022-12-10T07:56:38;14.32;;;6.53;;
17494;SDS011;8864;51.970;4.614;2022-12-10T07:59:05;15.60;;;6.82;;
17494;SDS011;8864;51.970;4.614;2022-12-10T08:01:34;14.10;;;6.10;;
17494;SDS011;8864;51.970;4.614;2022-12-10T08:04:01;20.90;;;7.28;;
17494;SDS011;8864;51.970;4.614;2022-12-10T08:06:28;22.92;;;8.23;;
17494;SDS011;8864;51.970;4.614;2022-12-10T08:08:57;23.90;;;8.18;;
17494;SDS011;8864;51.970;4.614;2022-12-10T08:11:25;27.38;;;8.15;;
17494;SDS011;8864;51.970;4.614;2022-12-10T08:13:52;21.63;;;8.07;;
17494;SDS011;8864;51.970;4.614;2022-12-10T08:16:20;28.65;;;8.23;;
17494;SDS011;8864;51.970;4.614;2022-12-10T08:18:51;21.98;;;7.03;;
17494;SDS011;8864;51.970;4.614;2022-12-10T08:21:19;18.23;;;7.00;;
17494;SDS011;8864;51.970;4.614;2022-12-10T08:23:47;21.85;;;7.95;;
17494;SDS011;8864;51.970;4.614;2022-12-10T08:26:15;19.90;;;6.65;;
17494;SDS011;8864;51.970;4.614;2022-12-10T08:28:43;20.13;;;7.38;;
17494;SDS011;8864;51.970;4.614;2022-12-10T08:31:10;17.20;;;6.95;;
17494;SDS011;8864;51.970;4.614;2022-12-10T08:33:38;18.55;;;6.35;;
17494;SDS011;8864;51.970;4.614;2022-12-10T08:36:08;21.50;;;6.85;;
17494;SDS011;8864;51.970;4.614;2022-12-10T08:38:36;19.98;;;7.15;;
17494;SDS011;8864;51.970;4.614;2022-12-10T08:41:06;16.42;;;5.93;;
17494;SDS011;8864;51.970;4.614;2022-12-10T08:43:34;15.25;;;5.90;;
17494;SDS011;8864;51.970;4.614;2022-12-10T08:46:01;16.13;;;5.47;;
17494;SDS011;8864;51.970;4.614;2022-12-10T08:48:28;14.25;;;5.60;;
17494;SDS011;8864;51.970;4.614;2022-12-10T08:50:56;15.35;;;5.68;;
17494;SDS011;8864;51.970;4.614;2022-12-10T08:53:25;10.93;;;5.00;;
17494;SDS011;8864;51.970;4.614;2022-12-10T08:55:53;17.50;;;5.50;;
17494;SDS011;8864;51.970;4.614;2022-12-10T08:58:20;16.67;;;5.60;;
17494;SDS011;8864;51.970;4.614;2022-12-10T09:00:47;14.07;;;5.85;;
17494;SDS011;8864;51.970;4.614;2022-12-10T09:03:15;14.98;;;6.13;;
17494;SDS011;8864;51.970;4.614;2022-12-10T09:05:42;13.02;;;5.25;;
17494;SDS011;8864;51.970;4.614;2022-12-10T09:08:09;17.50;;;6.03;;
17494;SDS011;8864;51.970;4.614;2022-12-10T09:10:38;12.43;;;5.30;;
17494;SDS011;8864;51.970;4.614;2022-12-10T09:13:06;13.20;;;5.40;;
17494;SDS011;8864;51.970;4.614;2022-12-10T09:15:33;11.45;;;5.03;;
17494;SDS011;8864;51.970;4.614;2022-12-10T09:18:00;12.73;;;5.60;;
17494;SDS011;8864;51.970;4.614;2022-12-10T09:20:27;12.60;;;5.00;;
17494;SDS011;8864;51.970;4.614;2022-12-10T09:22:53;14.10;;;5.50;;
17494;SDS011;8864;51.970;4.614;2022-12-10T09:25:20;9.32;;;4.55;;
17494;SDS011;8864;51.970;4.614;2022-12-10T09:27:49;11.05;;;5.07;;
17494;SDS011;8864;51.970;4.614;2022-12-10T09:30:15;10.63;;;4.68;;
17494;SDS011;8864;51.970;4.614;2022-12-10T09:32:42;11.05;;;5.00;;
17494;SDS011;8864;51.970;4.614;2022-12-10T09:35:10;11.50;;;4.75;;
17494;SDS011;8864;51.970;4.614;2022-12-10T09:37:36;9.25;;;4.63;;
17494;SDS011;8864;51.970;4.614;2022-12-10T09:40:04;8.68;;;4.35;;
17494;SDS011;8864;51.970;4.614;2022-12-10T09:42:38;12.77;;;4.80;;
17494;SDS011;8864;51.970;4.614;2022-12-10T09:45:14;9.27;;;4.55;;
17494;SDS011;8864;51.970;4.614;2022-12-10T09:47:48;10.27;;;4.65;;
17494;SDS011;8864;51.970;4.614;2022-12-10T09:50:23;9.35;;;4.85;;
17494;SDS011;8864;51.970;4.614;2022-12-10T09:52:55;10.32;;;4.47;;
17494;SDS011;8864;51.970;4.614;2022-12-10T09:55:26;9.85;;;4.63;;
17494;SDS011;8864;51.970;4.614;2022-12-10T09:57:58;10.73;;;4.53;;
17494;SDS011;8864;51.970;4.614;2022-12-10T10:00:32;10.75;;;4.82;;
17494;SDS011;8864;51.970;4.614;2022-12-10T10:03:01;9.13;;;4.32;;
17494;SDS011;8864;51.970;4.614;2022-12-10T10:05:29;10.27;;;4.53;;
17494;SDS011;8864;51.970;4.614;2022-12-10T10:07:59;9.23;;;4.18;;
17494;SDS011;8864;51.970;4.614;2022-12-10T10:10:30;7.90;;;4.00;;
17494;SDS011;8864;51.970;4.614;2022-12-10T10:13:10;8.65;;;3.88;;
17494;SDS011;8864;51.970;4.614;2022-12-10T10:15:44;8.45;;;4.07;;
17494;SDS011;8864;51.970;4.614;2022-12-10T10:18:13;9.02;;;4.50;;
17494;SDS011;8864;51.970;4.614;2022-12-10T10:20:43;7.75;;;3.92;;
17494;SDS011;8864;51.970;4.614;2022-12-10T10:23:12;7.78;;;4.63;;
17494;SDS011;8864;51.970;4.614;2022-12-10T10:25:41;8.57;;;3.85;;
17494;SDS011;8864;51.970;4.614;2022-12-10T10:28:11;7.60;;;4.50;;
17494;SDS011;8864;51.970;4.614;2022-12-10T10:30:40;9.30;;;4.15;;
17494;SDS011;8864;51.970;4.614;2022-12-10T10:33:10;7.80;;;4.20;;
17494;SDS011;8864;51.970;4.614;2022-12-10T10:35:43;9.88;;;4.80;;
17494;SDS011;8864;51.970;4.614;2022-12-10T10:38:14;8.38;;;4.32;;
17494;SDS011;8864;51.970;4.614;2022-12-10T10:40:46;7.68;;;4.00;;
17494;SDS011;8864;51.970;4.614;2022-12-10T10:43:18;8.57;;;4.43;;
17494;SDS011;8864;51.970;4.614;2022-12-10T10:45:53;8.00;;;4.53;;
17494;SDS011;8864;51.970;4.614;2022-12-10T10:48:26;7.70;;;4.20;;
17494;SDS011;8864;51.970;4.614;2022-12-10T10:50:54;7.68;;;4.10;;
17494;SDS011;8864;51.970;4.614;2022-12-10T10:53:31;9.68;;;3.78;;
17494;SDS011;8864;51.970;4.614;2022-12-10T10:56:00;7.80;;;3.67;;
17494;SDS011;8864;51.970;4.614;2022-12-10T10:58:33;8.20;;;3.97;;
17494;SDS011;8864;51.970;4.614;2022-12-10T11:01:02;8.57;;;3.95;;
17494;SDS011;8864;51.970;4.614;2022-12-10T11:03:33;8.57;;;3.95;;
17494;SDS011;8864;51.970;4.614;2022-12-10T11:06:04;7.03;;;3.95;;
17494;SDS011;8864;51.970;4.614;2022-12-10T11:08:33;8.50;;;3.90;;
17494;SDS011;8864;51.970;4.614;2022-12-10T11:11:04;8.85;;;3.92;;
17494;SDS011;8864;51.970;4.614;2022-12-10T11:13:38;7.47;;;3.80;;
17494;SDS011;8864;51.970;4.614;2022-12-10T11:16:10;7.65;;;3.92;;
17494;SDS011;8864;51.970;4.614;2022-12-10T11:18:42;7.80;;;3.58;;
17494;SDS011;8864;51.970;4.614;2022-12-10T11:21:18;7.47;;;3.90;;
17494;SDS011;8864;51.970;4.614;2022-12-10T11:23:47;8.13;;;3.70;;
17494;SDS011;8864;51.970;4.614;2022-12-10T11:29:23;9.38;;;4.45;;
17494;SDS011;8864;51.970;4.614;2022-12-10T11:32:03;7.95;;;3.78;;
17494;SDS011;8864;51.970;4.614;2022-12-10T11:34:44;7.78;;;4.05;;
17494;SDS011;8864;51.970;4.614;2022-12-10T11:37:20;8.55;;;3.97;;
17494;SDS011;8864;51.970;4.614;2022-12-10T11:39:54;7.18;;;3.95;;
17494;SDS011;8864;51.970;4.614;2022-12-10T11:42:43;8.45;;;3.80;;
17494;SDS011;8864;51.970;4.614;2022-12-10T11:45:19;8.45;;;4.10;;
17494;SDS011;8864;51.970;4.614;2022-12-10T11:47:56;9.10;;;3.92;;
17494;SDS011;8864;51.970;4.614;2022-12-10T11:50:43;7.82;;;4.13;;
17494;SDS011;8864;51.970;4.614;2022-12-10T11:53:14;8.50;;;4.30;;
17494;SDS011;8864;51.970;4.614;2022-12-10T11:55:56;8.13;;;3.97;;
17494;SDS011;8864;51.970;4.614;2022-12-10T11:58:38;8.20;;;4.30;;
17494;SDS011;8864;51.970;4.614;2022-12-10T12:01:23;8.48;;;4.32;;
17494;SDS011;8864;51.970;4.614;2022-12-10T12:04:00;7.78;;;3.92;;
17494;SDS011;8864;51.970;4.614;2022-12-10T12:06:57;8.57;;;4.00;;
17494;SDS011;8864;51.970;4.614;2022-12-10T12:09:36;8.90;;;4.50;;
17494;SDS011;8864;51.970;4.614;2022-12-10T12:12:15;8.95;;;4.22;;
17494;SDS011;8864;51.970;4.614;2022-12-10T12:14:53;9.10;;;4.60;;
17494;SDS011;8864;51.970;4.614;2022-12-10T12:17:26;7.57;;;3.75;;
17494;SDS011;8864;51.970;4.614;2022-12-10T12:19:55;8.45;;;4.53;;
17494;SDS011;8864;51.970;4.614;2022-12-10T12:22:27;8.73;;;4.25;;
17494;SDS011;8864;51.970;4.614;2022-12-10T12:24:57;7.95;;;4.55;;
17494;SDS011;8864;51.970;4.614;2022-12-10T12:27:28;9.38;;;4.30;;
17494;SDS011;8864;51.970;4.614;2022-12-10T12:30:04;7.72;;;4.00;;
17494;SDS011;8864;51.970;4.614;2022-12-10T12:32:39;9.95;;;4.78;;
17494;SDS011;8864;51.970;4.614;2022-12-10T12:35:14;7.82;;;4.35;;
17494;SDS011;8864;51.970;4.614;2022-12-10T12:37:47;7.85;;;4.25;;
17494;SDS011;8864;51.970;4.614;2022-12-10T12:40:23;8.48;;;4.38;;
17494;SDS011;8864;51.970;4.614;2022-12-10T12:42:55;9.35;;;4.30;;
17494;SDS011;8864;51.970;4.614;2022-12-10T12:45:31;9.13;;;4.60;;
17494;SDS011;8864;51.970;4.614;2022-12-10T12:48:13;8.95;;;4.63;;
17494;SDS011;8864;51.970;4.614;2022-12-10T12:50:48;8.88;;;4.45;;
17494;SDS011;8864;51.970;4.614;2022-12-10T12:53:21;9.82;;;4.45;;
17494;SDS011;8864;51.970;4.614;2022-12-10T12:55:52;8.23;;;4.07;;
17494;SDS011;8864;51.970;4.614;2022-12-10T12:58:31;9.98;;;5.00;;
17494;SDS011;8864;51.970;4.614;2022-12-10T13:01:06;8.32;;;4.32;;
17494;SDS011;8864;51.970;4.614;2022-12-10T13:03:43;9.15;;;4.45;;
17494;SDS011;8864;51.970;4.614;2022-12-10T13:06:12;8.40;;;4.18;;
17494;SDS011;8864;51.970;4.614;2022-12-10T13:08:46;9.75;;;4.72;;
17494;SDS011;8864;51.970;4.614;2022-12-10T13:11:18;7.32;;;4.30;;
17494;SDS011;8864;51.970;4.614;2022-12-10T13:14:15;7.97;;;4.40;;
17494;SDS011;8864;51.970;4.614;2022-12-10T13:19:52;8.55;;;4.10;;
17494;SDS011;8864;51.970;4.614;2022-12-10T13:22:41;8.23;;;4.35;;
17494;SDS011;8864;51.970;4.614;2022-12-10T13:25:13;7.72;;;4.20;;
17494;SDS011;8864;51.970;4.614;2022-12-10T13:27:41;7.32;;;3.75;;
17494;SDS011;8864;51.970;4.614;2022-12-10T13:30:33;8.43;;;4.40;;
17494;SDS011;8864;51.970;4.614;2022-12-10T13:33:05;8.77;;;4.25;;
17494;SDS011;8864;51.970;4.614;2022-12-10T13:38:31;5.57;;;3.40;;
17494;SDS011;8864;51.970;4.614;2022-12-10T13:41:06;7.40;;;3.97;;
17494;SDS011;8864;51.970;4.614;2022-12-10T13:43:52;8.10;;;4.20;;
17494;SDS011;8864;51.970;4.614;2022-12-10T13:46:52;8.60;;;4.25;;
17494;SDS011;8864;51.970;4.614;2022-12-10T13:49:24;8.18;;;4.07;;
17494;SDS011;8864;51.970;4.614;2022-12-10T13:51:54;6.95;;;3.67;;
17494;SDS011;8864;51.970;4.614;2022-12-10T13:54:33;8.57;;;4.10;;
17494;SDS011;8864;51.970;4.614;2022-12-10T13:57:23;7.93;;;3.80;;
17494;SDS011;8864;51.970;4.614;2022-12-10T14:00:15;7.43;;;3.95;;
17494;SDS011;8864;51.970;4.614;2022-12-10T14:06:00;7.80;;;3.83;;
17494;SDS011;8864;51.970;4.614;2022-12-10T14:08:38;8.95;;;4.15;;
17494;SDS011;8864;51.970;4.614;2022-12-10T14:11:13;8.23;;;4.15;;
17494;SDS011;8864;51.970;4.614;2022-12-10T14:13:47;7.13;;;3.90;;
17494;SDS011;8864;51.970;4.614;2022-12-10T14:16:20;8.23;;;4.22;;
17494;SDS011;8864;51.970;4.614;2022-12-10T14:18:51;7.63;;;4.10;;
17494;SDS011;8864;51.970;4.614;2022-12-10T14:21:22;6.18;;;3.60;;
17494;SDS011;8864;51.970;4.614;2022-12-10T14:23:50;6.75;;;3.67;;
17494;SDS011;8864;51.970;4.614;2022-12-10T14:26:19;7.18;;;3.80;;
17494;SDS011;8864;51.970;4.614;2022-12-10T14:28:49;8.43;;;4.28;;
17494;SDS011;8864;51.970;4.614;2022-12-10T14:31:20;6.38;;;3.50;;
17494;SDS011;8864;51.970;4.614;2022-12-10T14:33:51;9.18;;;3.50;;
17494;SDS011;8864;51.970;4.614;2022-12-10T14:36:24;7.55;;;3.83;;
17494;SDS011;8864;51.970;4.614;2022-12-10T14:38:54;8.13;;;4.28;;
17494;SDS011;8864;51.970;4.614;2022-12-10T14:41:22;7.13;;;4.00;;
17494;SDS011;8864;51.970;4.614;2022-12-10T14:43:51;6.28;;;3.33;;
17494;SDS011;8864;51.970;4.614;2022-12-10T14:46:19;6.28;;;3.63;;
17494;SDS011;8864;51.970;4.614;2022-12-10T14:48:50;8.25;;;3.67;;
17494;SDS011;8864;51.970;4.614;2022-12-10T14:51:20;7.13;;;3.97;;
17494;SDS011;8864;51.970;4.614;2022-12-10T14:53:48;7.25;;;4.07;;
17494;SDS011;8864;51.970;4.614;2022-12-10T14:56:18;7.00;;;3.78;;
17494;SDS011;8864;51.970;4.614;2022-12-10T14:58:52;5.65;;;3.15;;
17494;SDS011;8864;51.970;4.614;2022-12-10T15:01:29;7.05;;;3.70;;
17494;SDS011;8864;51.970;4.614;2022-12-10T15:03:59;6.00;;;3.45;;
17494;SDS011;8864;51.970;4.614;2022-12-10T15:06:28;7.45;;;3.90;;
17494;SDS011;8864;51.970;4.614;2022-12-10T15:09:00;8.15;;;3.67;;
17494;SDS011;8864;51.970;4.614;2022-12-10T15:11:27;7.20;;;3.75;;
17494;SDS011;8864;51.970;4.614;2022-12-10T15:13:57;7.13;;;3.60;;
17494;SDS011;8864;51.970;4.614;2022-12-10T15:16:29;6.28;;;3.53;;
17494;SDS011;8864;51.970;4.614;2022-12-10T15:19:07;7.55;;;3.70;;
17494;SDS011;8864;51.970;4.614;2022-12-10T15:21:40;8.85;;;4.00;;
17494;SDS011;8864;51.970;4.614;2022-12-10T15:24:13;6.22;;;3.50;;
17494;SDS011;8864;51.970;4.614;2022-12-10T15:26:47;7.40;;;3.75;;
17494;SDS011;8864;51.970;4.614;2022-12-10T15:32:00;7.53;;;3.85;;
17494;SDS011;8864;51.970;4.614;2022-12-10T15:34:33;6.57;;;3.95;;